createdAt,value
2019-02-19T00:01:02.942Z,99.90
2019-02-19T00:04:10.502Z,99.90
2019-02-19T00:07:18.181Z,99.90
2019-02-19T00:10:25.774Z,99.90
2019-02-19T00:13:33.468Z,99.90
2019-02-19T00:16:40.928Z,99.90
2019-02-19T00:19:48.554Z,99.90
2019-02-19T00:22:56.175Z,99.90
2019-02-19T00:26:03.052Z,99.90
2019-02-19T00:29:10.714Z,99.90
2019-02-19T00:32:18.322Z,99.90
2019-02-19T00:35:26.179Z,99.90
2019-02-19T00:38:33.850Z,99.90
2019-02-19T00:41:41.595Z,99.90
2019-02-19T00:44:50.276Z,99.90
2019-02-19T00:47:58.292Z,99.90
2019-02-19T00:51:05.820Z,99.90
2019-02-19T00:54:13.340Z,99.90
2019-02-19T00:57:20.879Z,99.90
2019-02-19T01:00:28.426Z,99.90
2019-02-19T01:03:36.104Z,99.90
2019-02-19T01:06:43.668Z,99.90
2019-02-19T01:09:51.263Z,99.90
2019-02-19T01:12:58.768Z,99.90
2019-02-19T01:16:06.372Z,99.90
2019-02-19T01:19:13.864Z,99.90
2019-02-19T01:22:21.440Z,99.90
2019-02-19T01:25:29.240Z,99.90
2019-02-19T01:28:36.714Z,99.90
2019-02-19T01:31:44.388Z,99.90
2019-02-19T01:34:51.884Z,99.90
2019-02-19T01:37:59.440Z,99.90
2019-02-19T01:41:07.141Z,99.90
2019-02-19T01:44:14.665Z,99.90
2019-02-19T01:47:22.288Z,99.90
2019-02-19T01:50:29.904Z,99.90
2019-02-19T01:53:37.434Z,99.90
2019-02-19T01:56:45.084Z,99.90
2019-02-19T01:59:52.706Z,99.90
2019-02-19T02:03:00.230Z,99.90
2019-02-19T02:06:07.786Z,99.90
2019-02-19T02:09:15.470Z,99.90
2019-02-19T02:12:23.792Z,99.90
2019-02-19T02:15:31.638Z,99.90
2019-02-19T02:18:39.191Z,99.90
2019-02-19T02:21:47.744Z,99.90
2019-02-19T02:24:55.266Z,99.90
2019-02-19T02:28:02.766Z,99.90
2019-02-19T02:31:10.461Z,99.90
2019-02-19T02:34:18.063Z,99.90
2019-02-19T02:37:25.574Z,99.90
2019-02-19T02:40:33.168Z,99.90
2019-02-19T02:43:40.705Z,99.90
2019-02-19T02:46:48.282Z,99.90
2019-02-19T02:49:55.757Z,99.90
2019-02-19T02:53:03.286Z,99.90
2019-02-19T02:56:10.843Z,99.90
2019-02-19T02:59:18.319Z,99.90
2019-02-19T03:02:25.833Z,99.90
2019-02-19T03:05:33.639Z,99.90
2019-02-19T03:08:43.192Z,99.90
2019-02-19T03:11:50.974Z,99.90
2019-02-19T03:14:58.971Z,99.90
2019-02-19T03:18:06.751Z,99.90
2019-02-19T03:21:14.224Z,99.90
2019-02-19T03:24:21.845Z,99.90
2019-02-19T03:27:31.058Z,99.90
2019-02-19T03:30:38.853Z,99.90
2019-02-19T03:33:47.558Z,99.90
2019-02-19T03:36:55.432Z,99.90
2019-02-19T03:40:03.028Z,99.90
2019-02-19T03:43:11.329Z,99.90
2019-02-19T03:46:19.149Z,99.90
2019-02-19T03:49:27.399Z,99.90
2019-02-19T03:52:36.159Z,99.90
2019-02-19T03:55:43.911Z,99.90
2019-02-19T03:58:51.944Z,99.90
2019-02-19T04:01:59.765Z,99.90
2019-02-19T04:05:07.527Z,99.90
2019-02-19T04:08:15.519Z,99.90
2019-02-19T04:11:23.366Z,99.90
2019-02-19T04:14:31.212Z,99.90
2019-02-19T04:17:38.729Z,99.90
2019-02-19T04:20:46.630Z,99.90
2019-02-19T04:23:54.471Z,99.90
2019-02-19T04:27:02.145Z,99.90
2019-02-19T04:30:12.348Z,99.90
2019-02-19T04:33:19.890Z,99.90
2019-02-19T04:36:27.493Z,99.90
2019-02-19T04:39:35.294Z,99.90
2019-02-19T04:42:42.967Z,99.90
2019-02-19T04:45:50.545Z,99.90
2019-02-19T04:48:58.117Z,99.90
2019-02-19T04:52:05.635Z,99.90
2019-02-19T04:55:16.515Z,99.90
2019-02-19T04:58:24.086Z,99.90
2019-02-19T05:01:32.002Z,99.90
2019-02-19T05:04:39.593Z,99.90
2019-02-19T05:07:47.131Z,99.90
2019-02-19T05:10:54.691Z,99.90
2019-02-19T05:14:02.347Z,99.90
2019-02-19T05:17:10.997Z,99.90
2019-02-19T05:20:18.650Z,99.90
2019-02-19T05:23:26.162Z,99.90
2019-02-19T05:26:33.668Z,99.90
2019-02-19T05:29:41.668Z,99.90
2019-02-19T05:32:49.498Z,99.90
2019-02-19T05:35:58.217Z,99.90
2019-02-19T05:39:07.921Z,99.90
2019-02-19T05:42:15.455Z,99.90
2019-02-19T05:45:22.993Z,99.90
2019-02-19T05:48:30.579Z,99.90
2019-02-19T05:51:38.103Z,99.90
2019-02-19T05:54:45.693Z,99.90
2019-02-19T05:57:53.446Z,99.90
2019-02-19T06:01:01.031Z,99.90
2019-02-19T06:04:09.556Z,99.90
2019-02-19T06:07:17.116Z,99.90
2019-02-19T06:10:24.803Z,99.90
2019-02-19T06:13:32.445Z,99.90
2019-02-19T06:16:40.487Z,99.90
2019-02-19T06:19:48.179Z,99.90
2019-02-19T06:22:55.721Z,99.90
2019-02-19T06:26:03.331Z,99.90
2019-02-19T06:29:10.965Z,99.90
2019-02-19T06:32:18.479Z,99.90
2019-02-19T06:35:26.164Z,99.90
2019-02-19T06:38:33.952Z,99.90
2019-02-19T06:41:41.463Z,99.90
2019-02-19T06:44:49.179Z,99.90
2019-02-19T06:47:56.706Z,99.90
2019-02-19T06:51:04.187Z,99.90
2019-02-19T06:54:11.696Z,99.90
2019-02-19T06:57:19.242Z,99.90
2019-02-19T07:00:26.748Z,99.90
2019-02-19T07:03:38.537Z,99.90
2019-02-19T07:06:46.195Z,99.90
2019-02-19T07:09:53.777Z,99.90
2019-02-19T07:13:01.323Z,99.90
2019-02-19T07:16:08.945Z,99.90
2019-02-19T07:19:16.533Z,99.90
2019-02-19T07:22:24.351Z,99.90
2019-02-19T07:25:32.700Z,99.90
2019-02-19T07:28:40.927Z,99.90
2019-02-19T07:31:48.717Z,99.90
2019-02-19T07:34:57.579Z,99.90
2019-02-19T07:38:05.818Z,99.90
2019-02-19T07:41:13.583Z,99.90
2019-02-19T07:44:21.168Z,99.80
2019-02-19T07:47:29.220Z,99.40
2019-02-19T07:50:37.404Z,99.60
2019-02-19T07:53:45.461Z,99.90
2019-02-19T07:56:53.814Z,99.80
2019-02-19T08:00:01.804Z,99.60
2019-02-19T08:03:09.507Z,99.10
2019-02-19T08:06:17.863Z,98.40
2019-02-19T08:09:25.677Z,97.90
2019-02-19T08:12:33.673Z,97.20
2019-02-19T08:15:41.328Z,96.80
2019-02-19T08:18:49.169Z,95.90
2019-02-19T08:21:57.326Z,94.30
2019-02-19T08:25:05.657Z,94.90
2019-02-19T08:28:13.307Z,95.10
2019-02-19T08:31:21.377Z,95.50
2019-02-19T08:34:29.107Z,95.80
2019-02-19T08:37:36.934Z,94.30
2019-02-19T08:40:45.023Z,92.80
2019-02-19T08:43:53.123Z,92.00
2019-02-19T08:47:01.168Z,92.70
2019-02-19T08:50:10.446Z,93.10
2019-02-19T08:53:18.099Z,92.90
2019-02-19T08:56:25.752Z,91.70
2019-02-19T08:59:33.524Z,90.20
2019-02-19T09:02:41.159Z,88.70
2019-02-19T09:05:48.727Z,89.10
2019-02-19T09:08:56.320Z,86.10
2019-02-19T09:12:03.928Z,85.80
2019-02-19T09:15:12.204Z,84.50
2019-02-19T09:18:19.944Z,83.60
2019-02-19T09:21:27.495Z,80.60
2019-02-19T09:24:37.333Z,82.30
2019-02-19T09:27:44.938Z,86.70
2019-02-19T09:30:52.468Z,89.20
2019-02-19T09:34:00.503Z,90.20
2019-02-19T09:37:08.079Z,90.70
2019-02-19T09:40:15.643Z,89.20
2019-02-19T09:43:23.534Z,89.10
2019-02-19T09:46:31.202Z,88.70
2019-02-19T09:49:38.871Z,88.30
2019-02-19T09:52:46.550Z,89.30
2019-02-19T09:55:54.139Z,89.40
2019-02-19T09:59:03.510Z,87.20
2019-02-19T10:02:11.100Z,86.60
2019-02-19T10:05:18.672Z,85.10
2019-02-19T10:08:26.346Z,83.00
2019-02-19T10:11:34.024Z,84.30
2019-02-19T10:14:41.754Z,85.80
2019-02-19T10:17:49.301Z,85.10
2019-02-19T10:20:56.877Z,81.10
2019-02-19T10:24:04.429Z,76.60
2019-02-19T10:27:12.039Z,77.70
2019-02-19T10:30:20.152Z,80.80
2019-02-19T10:33:27.708Z,83.70
2019-02-19T10:36:35.393Z,82.60
2019-02-19T10:39:43.069Z,82.10
2019-02-19T10:42:52.293Z,80.00
2019-02-19T10:46:00.011Z,78.90
2019-02-19T10:49:07.861Z,82.10
2019-02-19T10:52:15.608Z,80.60
2019-02-19T10:55:23.583Z,81.70
2019-02-19T10:58:31.149Z,83.50
2019-02-19T11:01:38.872Z,81.10
2019-02-19T11:04:46.387Z,77.80
2019-02-19T11:07:53.936Z,80.20
2019-02-19T11:11:01.584Z,82.80
2019-02-19T11:14:09.236Z,85.30
2019-02-19T11:17:16.815Z,84.50
2019-02-19T11:20:24.927Z,82.80
2019-02-19T11:23:33.764Z,84.50
2019-02-19T11:26:41.541Z,85.30
2019-02-19T11:29:49.116Z,85.10
2019-02-19T11:32:56.872Z,87.70
2019-02-19T11:36:04.508Z,87.50
2019-02-19T11:39:13.322Z,90.30
2019-02-19T11:42:20.866Z,90.30
2019-02-19T11:45:28.499Z,88.90
2019-02-19T11:48:37.176Z,88.80
2019-02-19T11:51:44.911Z,87.60
2019-02-19T11:54:52.405Z,88.00
2019-02-19T11:57:59.942Z,90.10
2019-02-19T12:01:07.759Z,91.30
2019-02-19T12:04:15.293Z,92.00
2019-02-19T12:07:23.169Z,91.90
2019-02-19T12:10:30.794Z,92.80
2019-02-19T12:13:38.492Z,93.00
2019-02-19T12:16:46.431Z,93.70
2019-02-19T12:19:54.672Z,93.40
2019-02-19T12:23:02.673Z,93.90
2019-02-19T12:26:10.365Z,94.40
2019-02-19T12:29:18.934Z,94.60
2019-02-19T12:32:26.484Z,94.10
2019-02-19T12:35:34.022Z,94.50
2019-02-19T12:38:41.752Z,94.20
2019-02-19T12:41:50.279Z,94.90
2019-02-19T12:44:58.320Z,95.30
2019-02-19T12:48:06.203Z,95.90
2019-02-19T12:51:14.833Z,95.90
2019-02-19T12:54:22.418Z,95.50
2019-02-19T12:57:30.214Z,95.80
2019-02-19T13:00:38.598Z,96.50
2019-02-19T13:03:46.182Z,95.80
2019-02-19T13:06:54.252Z,95.70
2019-02-19T13:10:03.274Z,95.20
2019-02-19T13:13:12.004Z,95.50
2019-02-19T13:16:19.691Z,95.30
2019-02-19T13:19:27.249Z,94.80
2019-02-19T13:22:36.766Z,94.90
2019-02-19T13:25:44.495Z,95.60
2019-02-19T13:28:52.230Z,95.60
2019-02-19T13:31:59.850Z,95.60
2019-02-19T13:35:08.062Z,96.10
2019-02-19T13:38:15.589Z,96.20
2019-02-19T13:41:23.345Z,97.10
2019-02-19T13:44:31.330Z,97.50
2019-02-19T13:47:39.066Z,97.80
2019-02-19T13:50:46.779Z,98.50
2019-02-19T13:54:04.400Z,98.70
2019-02-19T13:57:12.057Z,98.80
2019-02-19T14:00:21.958Z,99.10
2019-02-19T14:03:29.552Z,99.20
2019-02-19T14:06:37.318Z,99.00
2019-02-19T14:09:45.002Z,99.30
2019-02-19T14:12:52.560Z,99.40
2019-02-19T14:16:25.084Z,99.10
2019-02-19T14:19:56.301Z,99.70
2019-02-19T14:23:40.902Z,99.10
2019-02-19T14:27:07.275Z,99.40
2019-02-19T14:30:29.762Z,99.50
2019-02-19T14:34:12.367Z,99.40
2019-02-19T14:37:37.531Z,99.60
2019-02-19T14:41:03.031Z,99.90
2019-02-19T14:44:32.514Z,99.90
2019-02-19T14:48:05.218Z,99.90
2019-02-19T14:51:31.544Z,99.90
2019-02-19T14:55:06.794Z,99.90
2019-02-19T14:58:36.000Z,99.90
2019-02-19T15:02:01.840Z,99.90
2019-02-19T15:05:34.674Z,99.90
2019-02-19T15:09:00.286Z,99.90
2019-02-19T15:12:29.677Z,99.90
2019-02-19T15:15:53.865Z,99.90
2019-02-19T15:19:19.615Z,99.90
2019-02-19T15:22:50.850Z,99.90
2019-02-19T15:26:12.282Z,99.90
2019-02-19T15:29:44.885Z,99.90
2019-02-19T15:33:09.888Z,99.90
2019-02-19T15:36:54.402Z,99.90
2019-02-19T15:40:27.232Z,99.90
2019-02-19T15:43:56.660Z,99.90
2019-02-19T15:47:33.526Z,99.90
2019-02-19T15:50:58.800Z,99.90
2019-02-19T15:54:25.218Z,99.90
2019-02-19T15:57:50.532Z,99.90
2019-02-19T16:01:35.402Z,99.90
2019-02-19T16:04:57.804Z,99.90
2019-02-19T16:08:18.246Z,99.90
2019-02-19T16:11:54.352Z,99.90
2019-02-19T16:15:12.100Z,99.90
2019-02-19T16:18:49.151Z,99.90
2019-02-19T16:22:18.095Z,99.90
2019-02-19T16:25:47.609Z,99.90
2019-02-19T16:29:29.073Z,99.90
2019-02-19T16:32:49.763Z,99.90
2019-02-19T16:36:28.197Z,99.90
2019-02-19T16:39:52.278Z,99.90
2019-02-19T16:43:21.796Z,99.90
2019-02-19T16:46:44.854Z,99.90
2019-02-19T16:50:07.275Z,99.90
2019-02-19T16:53:21.662Z,99.90
2019-02-19T16:56:44.789Z,99.90
2019-02-19T17:00:09.630Z,99.90
2019-02-19T17:03:45.876Z,99.90
2019-02-19T17:07:15.274Z,99.90
2019-02-19T17:10:41.657Z,99.90
2019-02-19T17:14:11.717Z,99.90
2019-02-19T17:17:41.192Z,99.90
2019-02-19T17:20:56.246Z,99.90
2019-02-19T17:24:22.616Z,99.90
2019-02-19T17:28:07.329Z,99.90
2019-02-19T17:31:43.414Z,99.90
2019-02-19T17:35:12.716Z,99.90
2019-02-19T17:38:42.151Z,99.90
2019-02-19T17:41:59.052Z,99.90
2019-02-19T17:45:25.584Z,99.90
2019-02-19T17:48:50.542Z,99.90
2019-02-19T17:52:10.684Z,99.90
2019-02-19T17:55:35.711Z,99.90
2019-02-19T17:59:01.731Z,99.90
2019-02-19T18:02:19.520Z,99.90
2019-02-19T18:05:55.041Z,99.90
2019-02-19T18:09:20.476Z,99.90
2019-02-19T18:12:49.749Z,99.90
2019-02-19T18:16:10.937Z,99.90
2019-02-19T18:19:18.459Z,99.90
2019-02-19T18:22:26.061Z,99.90
2019-02-19T18:25:35.367Z,99.90
2019-02-19T18:28:42.975Z,99.90
2019-02-19T18:31:50.716Z,99.90
2019-02-19T18:35:01.372Z,99.90
2019-02-19T18:38:10.078Z,99.90
2019-02-19T18:41:17.906Z,99.90
2019-02-19T18:44:27.180Z,99.90
2019-02-19T18:47:34.704Z,99.90
2019-02-19T18:50:42.298Z,99.90
2019-02-19T18:53:50.093Z,99.90
2019-02-19T18:56:57.634Z,99.90
2019-02-19T19:00:05.791Z,99.90
2019-02-19T19:03:13.354Z,99.90
2019-02-19T19:06:21.000Z,99.90
2019-02-19T19:09:28.559Z,99.90
2019-02-19T19:12:36.103Z,99.90
2019-02-19T19:15:43.827Z,99.90
2019-02-19T19:18:51.557Z,99.90
2019-02-19T19:21:59.194Z,99.90
2019-02-19T19:25:06.843Z,99.90
2019-02-19T19:28:14.600Z,99.90
2019-02-19T19:31:23.236Z,99.90
2019-02-19T19:34:30.766Z,99.90
2019-02-19T19:37:38.315Z,99.90
2019-02-19T19:40:45.913Z,99.90
2019-02-19T19:43:53.596Z,99.90
2019-02-19T19:47:01.241Z,99.90
2019-02-19T19:50:09.291Z,99.90
2019-02-19T19:53:16.969Z,99.90
2019-02-19T19:56:25.600Z,99.90
2019-02-19T19:59:33.390Z,99.90
2019-02-19T20:02:40.951Z,99.90
2019-02-19T20:05:49.504Z,99.90
2019-02-19T20:08:57.148Z,99.90
2019-02-19T20:12:04.714Z,99.90
2019-02-19T20:15:12.283Z,99.90
2019-02-19T20:18:19.945Z,99.90
2019-02-19T20:21:27.576Z,99.90
2019-02-19T20:24:36.159Z,99.90
2019-02-19T20:27:45.280Z,99.90
2019-02-19T20:30:52.835Z,99.90
2019-02-19T20:34:01.775Z,99.90
2019-02-19T20:37:09.538Z,99.90
2019-02-19T20:40:17.143Z,99.90
2019-02-19T20:43:24.780Z,99.90
2019-02-19T20:46:32.385Z,99.90
2019-02-19T20:49:41.141Z,99.90
2019-02-19T20:52:48.774Z,99.90
2019-02-19T20:55:56.845Z,99.90
2019-02-19T20:59:04.449Z,99.90
2019-02-19T21:02:12.801Z,99.90
2019-02-19T21:05:20.952Z,99.90
2019-02-19T21:08:28.641Z,99.90
2019-02-19T21:11:36.181Z,99.90
2019-02-19T21:14:43.906Z,99.90
2019-02-19T21:17:52.060Z,99.90
2019-02-19T21:20:59.735Z,99.90
2019-02-19T21:24:07.396Z,99.90
2019-02-19T21:27:15.114Z,99.90
2019-02-19T21:30:22.822Z,99.90
2019-02-19T21:33:30.539Z,99.90
2019-02-19T21:36:38.103Z,99.90
2019-02-19T21:39:46.354Z,99.90
2019-02-19T21:42:54.079Z,99.90
2019-02-19T21:46:01.701Z,99.90
2019-02-19T21:49:09.585Z,99.90
2019-02-19T21:52:17.223Z,99.90
2019-02-19T21:55:24.782Z,99.90
2019-02-19T21:58:32.392Z,99.90
2019-02-19T22:01:40.079Z,99.90
2019-02-19T22:04:47.723Z,99.90
2019-02-19T22:07:55.342Z,99.90
2019-02-19T22:11:02.956Z,99.90
2019-02-19T22:14:12.058Z,99.90
2019-02-19T22:17:19.723Z,99.90
2019-02-19T22:20:40.524Z,99.90
2019-02-19T22:23:48.094Z,99.90
2019-02-19T22:26:55.859Z,99.90
2019-02-19T22:30:04.347Z,99.90
2019-02-19T22:33:12.049Z,99.90
2019-02-19T22:36:19.667Z,99.90
2019-02-19T22:39:27.443Z,99.90
2019-02-19T22:42:34.997Z,99.90
2019-02-19T22:45:42.619Z,99.90
2019-02-19T22:48:50.258Z,99.90
2019-02-19T22:51:57.885Z,99.90
2019-02-19T22:55:17.421Z,99.90
2019-02-19T22:58:25.223Z,99.90
2019-02-19T23:01:41.942Z,99.90
2019-02-19T23:04:49.945Z,99.90
2019-02-19T23:07:57.965Z,99.90
2019-02-19T23:11:06.018Z,99.90
2019-02-19T23:14:13.572Z,99.90
2019-02-19T23:17:21.163Z,99.90
2019-02-19T23:20:28.805Z,99.90
2019-02-19T23:23:36.431Z,99.90
2019-02-19T23:26:44.111Z,99.90
2019-02-19T23:29:52.861Z,99.90
2019-02-19T23:33:00.504Z,99.90
2019-02-19T23:36:27.900Z,99.90
2019-02-19T23:39:43.367Z,99.90
2019-02-19T23:42:44.663Z,99.90
2019-02-19T23:45:52.261Z,99.90
2019-02-19T23:48:59.755Z,99.90
2019-02-19T23:52:07.320Z,99.90
2019-02-19T23:55:15.062Z,99.90
2019-02-19T23:58:22.695Z,99.90
